Time;durP1;ratioP1;P1;durP2;ratioP2;P2;SDS_P1;SDS_P2;PMS_P1;PMS_P2;Temp;Humidity;BMP_temperature;BMP_pressure;BME280_temperature;BME280_humidity;BME280_pressure;Samples;Min_cycle;Max_cycle;Signal;HPM_P1;HPM_P2
2023/03/10 00:00:11;;;;;;;11.43;5.20;;;6.60;99.70;;;;;;5114190;28;20029;-74
2023/03/10 00:02:37;;;;;;;10.70;5.05;;;6.60;99.60;;;;;;5114906;28;20020;-74
2023/03/10 00:05:03;;;;;;;8.38;4.85;;;6.60;99.60;;;;;;5114855;28;20039;-74
2023/03/10 00:07:29;;;;;;;10.95;4.97;;;6.60;99.60;;;;;;5114953;28;20020;-74
2023/03/10 00:09:55;;;;;;;8.68;4.70;;;6.60;99.60;;;;;;5114688;28;20028;-74
2023/03/10 00:12:21;;;;;;;9.85;4.65;;;6.60;99.60;;;;;;5114732;28;20540;-74
2023/03/10 00:14:47;;;;;;;8.52;4.40;;;6.60;99.60;;;;;;5114632;28;20024;-74
2023/03/10 00:17:13;;;;;;;9.35;4.45;;;6.60;99.60;;;;;;5114622;28;20024;-74
2023/03/10 00:19:39;;;;;;;8.45;4.10;;;6.60;99.50;;;;;;5114544;28;20039;-74
2023/03/10 00:22:05;;;;;;;7.28;4.15;;;6.60;99.50;;;;;;5113506;28;20110;-74
2023/03/10 00:24:31;;;;;;;7.00;3.92;;;6.60;99.50;;;;;;5114469;28;20048;-74
2023/03/10 00:26:56;;;;;;;7.72;4.28;;;6.60;99.40;;;;;;5114463;28;20031;-74
2023/03/10 00:29:22;;;;;;;6.72;3.90;;;6.60;99.30;;;;;;5114447;28;20111;-74
2023/03/10 00:31:47;;;;;;;6.57;4.07;;;6.60;99.30;;;;;;5114319;28;20091;-74
2023/03/10 00:34:13;;;;;;;6.38;3.78;;;6.60;99.30;;;;;;5114285;28;20119;-74
2023/03/10 00:36:39;;;;;;;7.70;4.30;;;6.60;99.30;;;;;;5113356;28;20038;-74
2023/03/10 00:39:05;;;;;;;7.18;3.95;;;6.50;99.20;;;;;;5114260;28;20034;-74
2023/03/10 00:41:35;;;;;;;7.85;4.45;;;6.60;99.20;;;;;;5114101;28;20058;-74
2023/03/10 00:44:02;;;;;;;6.25;4.05;;;6.50;99.20;;;;;;5114168;28;20046;-74
2023/03/10 00:46:28;;;;;;;8.45;3.90;;;6.50;99.10;;;;;;5114130;28;20045;-74
2023/03/10 00:48:55;;;;;;;7.57;3.92;;;6.50;99.20;;;;;;5114074;28;20087;-74
2023/03/10 00:51:21;;;;;;;8.32;4.20;;;6.50;99.20;;;;;;5114037;28;20054;-74
2023/03/10 00:53:47;;;;;;;8.32;4.18;;;6.50;99.20;;;;;;5113917;28;20020;-74
2023/03/10 00:56:22;;;;;;;6.53;3.63;;;6.50;99.20;;;;;;5113674;28;20016;-74
2023/03/10 00:58:51;;;;;;;7.90;4.15;;;6.60;99.20;;;;;;5113878;28;20030;-74
2023/03/10 01:01:23;;;;;;;8.35;4.40;;;6.50;99.10;;;;;;5113857;28;20084;-74
2023/03/10 01:03:51;;;;;;;7.95;4.18;;;6.50;99.10;;;;;;5113909;28;20034;-74
2023/03/10 01:06:16;;;;;;;9.18;4.55;;;6.50;99.00;;;;;;5112741;28;20023;-74
2023/03/10 01:08:42;;;;;;;9.30;4.75;;;6.50;98.90;;;;;;5112618;28;20032;-74
2023/03/10 01:11:08;;;;;;;9.65;4.45;;;6.50;98.80;;;;;;5113854;28;20020;-74
2023/03/10 01:13:34;;;;;;;8.65;4.47;;;6.50;99.00;;;;;;5113675;28;20157;-74
2023/03/10 01:15:59;;;;;;;8.18;4.68;;;6.50;98.90;;;;;;5113700;28;20047;-74
2023/03/10 01:18:25;;;;;;;10.30;4.70;;;6.40;98.90;;;;;;5113635;28;20067;-74
2023/03/10 01:20:51;;;;;;;8.60;4.32;;;6.40;98.90;;;;;;5113652;28;20020;-74
2023/03/10 01:23:23;;;;;;;8.52;4.53;;;6.30;98.90;;;;;;5113631;28;20021;-74
2023/03/10 01:25:49;;;;;;;7.97;4.53;;;6.40;99.00;;;;;;5113627;28;20024;-74
2023/03/10 01:28:16;;;;;;;7.90;4.07;;;6.30;99.00;;;;;;5113542;28;20549;-74
2023/03/10 01:30:42;;;;;;;11.90;4.75;;;6.30;99.10;;;;;;5113554;28;20049;-74
2023/03/10 01:33:09;;;;;;;11.43;4.88;;;6.40;99.20;;;;;;5113490;28;20032;-74
2023/03/10 01:35:36;;;;;;;8.50;4.57;;;6.40;99.60;;;;;;5112452;28;20028;-74
2023/03/10 01:38:02;;;;;;;8.45;4.38;;;6.40;99.30;;;;;;5113483;28;20087;-74
2023/03/10 01:40:28;;;;;;;9.52;5.05;;;6.40;99.20;;;;;;5113390;28;20027;-74
2023/03/10 01:43:19;;;;;;;9.50;4.55;;;6.40;99.30;;;;;;5113245;28;20044;-74
2023/03/10 01:45:45;;;;;;;11.23;4.32;;;6.50;99.70;;;;;;5112584;28;20516;-74
2023/03/10 01:48:12;;;;;;;11.32;5.00;;;6.40;99.30;;;;;;5112385;28;20028;-74
2023/03/10 01:50:38;;;;;;;11.10;5.07;;;6.50;99.20;;;;;;5113334;28;20031;-74
2023/03/10 01:53:04;;;;;;;10.13;5.25;;;6.50;99.20;;;;;;5113430;28;20040;-74
2023/03/10 01:55:34;;;;;;;10.73;5.20;;;6.50;99.30;;;;;;5113195;28;20508;-74
2023/03/10 01:58:01;;;;;;;9.98;4.68;;;6.60;99.30;;;;;;5113398;28;20027;-74
2023/03/10 02:00:28;;;;;;;12.60;5.25;;;6.60;99.30;;;;;;5112215;28;20111;-74
2023/03/10 02:03:09;;;;;;;11.48;5.75;;;6.50;99.40;;;;;;5113351;28;20024;-74
2023/03/10 02:05:44;;;;;;;11.07;5.72;;;6.50;99.40;;;;;;5113241;28;20483;-74
2023/03/10 02:08:11;;;;;;;13.90;5.95;;;6.50;99.40;;;;;;5113963;28;20020;-74
2023/03/10 02:10:37;;;;;;;12.02;6.07;;;6.50;99.40;;;;;;5117099;28;20038;-74
2023/03/10 02:13:04;;;;;;;11.90;5.43;;;6.50;99.60;;;;;;5117076;28;20024;-74
2023/03/10 02:15:31;;;;;;;12.98;6.25;;;6.50;99.50;;;;;;5116957;28;20031;-75
2023/03/10 02:17:58;;;;;;;11.88;5.55;;;6.50;99.70;;;;;;5116986;28;20027;-74
2023/03/10 02:21:08;;;;;;;9.95;5.13;;;6.60;99.60;;;;;;5116899;28;20026;-74
2023/03/10 02:24:12;;;;;;;11.05;5.60;;;6.60;99.60;;;;;;5090246;28;20057;-74
2023/03/10 02:27:01;;;;;;;12.43;5.40;;;6.50;99.70;;;;;;5034777;28;20026;-74
2023/03/10 02:29:37;;;;;;;12.20;5.65;;;6.60;99.70;;;;;;5034799;28;20030;-74
2023/03/10 02:32:04;;;;;;;11.55;5.40;;;6.50;99.70;;;;;;5092085;28;20062;-74
2023/03/10 02:34:30;;;;;;;10.90;5.88;;;6.50;99.80;;;;;;5116628;28;20043;-74
2023/03/10 02:36:55;;;;;;;11.32;5.85;;;6.50;99.80;;;;;;5116610;28;20032;-74
2023/03/10 02:39:21;;;;;;;12.93;6.10;;;6.60;99.90;;;;;;5116722;28;20030;-74
2023/03/10 02:41:47;;;;;;;13.95;5.82;;;6.60;99.80;;;;;;5116340;28;20044;-74
2023/03/10 02:44:17;;;;;;;12.88;6.03;;;6.60;99.90;;;;;;5116484;28;20040;-74
2023/03/10 02:46:43;;;;;;;10.35;5.70;;;6.60;99.90;;;;;;5116468;28;20536;-74
2023/03/10 02:49:09;;;;;;;11.68;5.15;;;6.70;99.90;;;;;;5116362;28;20040;-74
2023/03/10 02:51:39;;;;;;;10.25;5.38;;;6.70;99.90;;;;;;5116310;28;20020;-74
2023/03/10 02:54:07;;;;;;;12.30;5.55;;;6.70;99.80;;;;;;5115152;28;20024;-74
2023/03/10 02:56:34;;;;;;;11.57;5.57;;;6.70;99.80;;;;;;5116264;28;20027;-74
2023/03/10 02:59:00;;;;;;;11.38;5.53;;;6.70;99.80;;;;;;5116192;28;20026;-74
2023/03/10 03:01:28;;;;;;;12.70;6.00;;;6.70;99.90;;;;;;5115168;28;20032;-74
2023/03/10 03:03:55;;;;;;;11.48;5.75;;;6.70;99.90;;;;;;5116054;28;20031;-74
2023/03/10 03:06:20;;;;;;;12.88;5.47;;;6.70;99.90;;;;;;5116024;28;20031;-74
2023/03/10 03:08:47;;;;;;;12.00;5.38;;;6.70;99.90;;;;;;5115926;28;20020;-74
2023/03/10 03:11:13;;;;;;;13.20;5.68;;;6.70;99.90;;;;;;5115004;28;20461;-74
2023/03/10 03:13:38;;;;;;;11.68;5.70;;;6.80;99.80;;;;;;5115851;28;20031;-74
2023/03/10 03:16:06;;;;;;;10.57;5.78;;;6.80;99.70;;;;;;5115733;28;20044;-74
2023/03/10 03:18:32;;;;;;;12.57;6.10;;;6.80;99.70;;;;;;5115817;28;20023;-74
2023/03/10 03:21:01;;;;;;;11.85;4.93;;;6.80;99.70;;;;;;5115559;28;20023;-74
2023/03/10 03:23:27;;;;;;;14.35;6.07;;;6.80;99.60;;;;;;5115755;28;20024;-74
2023/03/10 03:25:53;;;;;;;10.90;5.15;;;6.80;99.60;;;;;;5115670;28;20088;-74
2023/03/10 03:28:18;;;;;;;12.27;5.68;;;6.80;99.50;;;;;;5115579;28;20043;-74
2023/03/10 03:30:45;;;;;;;11.57;5.53;;;6.80;99.50;;;;;;5115579;28;20061;-74
2023/03/10 03:33:11;;;;;;;11.88;5.38;;;6.80;99.50;;;;;;5115537;28;20040;-74
2023/03/10 03:35:37;;;;;;;11.93;6.22;;;6.80;99.40;;;;;;5114449;28;20093;-74
2023/03/10 03:38:03;;;;;;;13.57;6.05;;;6.80;99.40;;;;;;5115380;28;20100;-74
2023/03/10 03:40:32;;;;;;;13.52;6.25;;;6.80;99.40;;;;;;5115407;28;20020;-74
2023/03/10 03:42:58;;;;;;;10.73;5.70;;;6.80;99.40;;;;;;5115288;28;20074;-74
2023/03/10 03:45:25;;;;;;;13.43;6.53;;;6.80;99.40;;;;;;5097338;28;20028;-74
2023/03/10 03:47:51;;;;;;;12.50;5.55;;;6.80;99.40;;;;;;5114367;28;20455;-74
2023/03/10 03:50:18;;;;;;;10.05;5.80;;;6.80;99.30;;;;;;5115169;28;20031;-74
2023/03/10 03:52:45;;;;;;;11.18;5.80;;;6.80;99.30;;;;;;5115247;28;20036;-74
2023/03/10 03:55:12;;;;;;;11.32;5.50;;;6.80;99.20;;;;;;5115021;28;20042;-74
2023/03/10 03:57:38;;;;;;;15.50;6.25;;;6.70;99.20;;;;;;5114091;28;20418;-74
2023/03/10 04:00:07;;;;;;;10.10;5.28;;;6.80;99.30;;;;;;5114979;28;20088;-74
2023/03/10 04:02:33;;;;;;;13.93;6.10;;;6.70;99.40;;;;;;5114940;28;20020;-74
2023/03/10 04:04:59;;;;;;;13.95;6.10;;;6.70;99.40;;;;;;5113961;28;20406;-74
2023/03/10 04:07:25;;;;;;;12.25;5.80;;;6.80;99.40;;;;;;5114877;28;20028;-74
2023/03/10 04:09:50;;;;;;;10.55;5.35;;;6.80;99.40;;;;;;5113736;28;20113;-74
2023/03/10 04:12:16;;;;;;;12.77;5.70;;;6.80;99.30;;;;;;5114781;28;20024;-74
2023/03/10 04:14:42;;;;;;;10.70;5.28;;;6.70;99.30;;;;;;5114652;28;20036;-74
2023/03/10 04:17:07;;;;;;;10.65;5.00;;;6.70;99.30;;;;;;5114772;28;20020;-74
2023/03/10 04:19:33;;;;;;;11.93;5.55;;;6.70;99.30;;;;;;5114622;28;20032;-74
2023/03/10 04:21:59;;;;;;;9.38;5.25;;;6.70;99.30;;;;;;5113566;28;20042;-74
2023/03/10 04:24:24;;;;;;;10.23;5.10;;;6.70;99.30;;;;;;5114509;28;20024;-74
2023/03/10 04:26:50;;;;;;;10.20;5.65;;;6.80;99.30;;;;;;5114486;28;20046;-74
2023/03/10 04:29:16;;;;;;;11.93;5.60;;;6.70;99.30;;;;;;5113506;28;20050;-74
2023/03/10 04:31:41;;;;;;;11.15;5.05;;;6.70;99.30;;;;;;5112764;28;20024;-74
2023/03/10 04:34:07;;;;;;;10.85;5.30;;;6.70;99.30;;;;;;5114252;28;20035;-74
2023/03/10 04:36:32;;;;;;;10.82;5.50;;;6.70;99.30;;;;;;5114332;28;20020;-74
2023/03/10 04:38:58;;;;;;;11.65;5.50;;;6.80;99.40;;;;;;5114225;28;20036;-74
2023/03/10 04:41:24;;;;;;;11.30;5.53;;;6.80;99.40;;;;;;5113227;28;20081;-74
2023/03/10 04:43:50;;;;;;;11.15;5.65;;;6.80;99.70;;;;;;5114163;28;20028;-74
2023/03/10 04:46:15;;;;;;;10.23;5.03;;;6.80;99.30;;;;;;5113107;28;20032;-74
2023/03/10 04:48:41;;;;;;;11.65;6.03;;;6.90;99.30;;;;;;5113356;28;20028;-74
2023/03/10 04:51:10;;;;;;;12.68;5.72;;;6.80;99.30;;;;;;5114050;28;20030;-74
2023/03/10 04:53:36;;;;;;;13.48;6.47;;;6.90;99.30;;;;;;5113270;28;20165;-74
2023/03/10 04:56:05;;;;;;;13.15;6.28;;;6.90;99.60;;;;;;5113915;28;20040;-74
2023/03/10 04:58:32;;;;;;;13.15;6.35;;;6.90;99.30;;;;;;5113891;28;20076;-74
2023/03/10 05:00:57;;;;;;;10.93;5.45;;;6.90;99.30;;;;;;5113085;28;20024;-74
2023/03/10 05:03:23;;;;;;;10.63;5.45;;;6.90;99.30;;;;;;5112948;28;20063;-74
2023/03/10 05:05:49;;;;;;;11.38;5.35;;;6.90;99.30;;;;;;5113948;28;20035;-74
2023/03/10 05:08:15;;;;;;;9.55;4.90;;;6.90;99.40;;;;;;5113715;28;20036;-74
2023/03/10 05:10:43;;;;;;;11.02;5.30;;;6.90;99.40;;;;;;5112932;28;20088;-74
2023/03/10 05:13:11;;;;;;;11.52;5.15;;;6.90;99.30;;;;;;5113733;28;20038;-74
2023/03/10 05:15:38;;;;;;;10.93;5.00;;;6.90;99.30;;;;;;5113612;28;20030;-74
2023/03/10 05:18:04;;;;;;;9.40;5.13;;;6.90;99.30;;;;;;5113682;28;20036;-74
2023/03/10 05:20:29;;;;;;;10.80;5.60;;;6.80;99.20;;;;;;5113633;28;20016;-74
2023/03/10 05:22:55;;;;;;;10.27;5.22;;;6.80;99.20;;;;;;5112806;28;20051;-74
2023/03/10 05:25:21;;;;;;;12.93;5.18;;;6.80;99.20;;;;;;5113615;28;20032;-74
2023/03/10 05:27:46;;;;;;;13.90;5.20;;;6.80;99.20;;;;;;5113580;28;20028;-74
2023/03/10 05:30:14;;;;;;;13.25;5.72;;;6.80;99.20;;;;;;5113524;28;20032;-74
2023/03/10 05:32:41;;;;;;;12.25;5.47;;;6.80;99.20;;;;;;5113712;28;20020;-74
2023/03/10 05:35:07;;;;;;;9.88;5.05;;;6.80;99.20;;;;;;5112379;28;20020;-74
2023/03/10 05:37:38;;;;;;;10.30;4.57;;;6.80;99.20;;;;;;5113420;28;20039;-74
2023/03/10 05:40:05;;;;;;;12.48;5.05;;;6.80;99.10;;;;;;5112421;28;20024;-74
2023/03/10 05:42:31;;;;;;;13.35;5.38;;;6.80;99.20;;;;;;5113239;28;20047;-74
2023/03/10 05:44:56;;;;;;;13.80;5.43;;;6.80;99.30;;;;;;5117344;28;20391;-74
2023/03/10 05:47:22;;;;;;;10.48;4.78;;;6.90;99.30;;;;;;5117577;28;20039;-74
2023/03/10 05:49:47;;;;;;;11.13;4.72;;;6.90;99.30;;;;;;5117507;28;20057;-74
2023/03/10 05:52:13;;;;;;;10.15;4.65;;;6.90;99.30;;;;;;5117504;28;20177;-74
2023/03/10 05:54:39;;;;;;;10.52;4.22;;;6.90;99.40;;;;;;5116410;28;20043;-74
2023/03/10 05:57:04;;;;;;;10.60;4.45;;;7.00;99.50;;;;;;5116574;28;20028;-74
2023/03/10 05:59:30;;;;;;;8.50;4.43;;;7.00;99.50;;;;;;5117509;28;20035;-74
2023/03/10 06:01:56;;;;;;;11.63;3.88;;;7.10;99.60;;;;;;5117276;28;20039;-74
2023/03/10 06:04:21;;;;;;;6.72;2.95;;;7.10;99.70;;;;;;5116400;28;20020;-74
2023/03/10 06:06:47;;;;;;;7.57;3.20;;;7.20;99.90;;;;;;5117245;28;20566;-74
2023/03/10 06:09:12;;;;;;;8.70;3.50;;;7.30;99.90;;;;;;5117103;28;20087;-74
2023/03/10 06:11:38;;;;;;;7.53;3.45;;;7.40;99.80;;;;;;5116217;28;20048;-74
2023/03/10 06:14:04;;;;;;;4.80;2.53;;;7.40;99.80;;;;;;5116053;28;20043;-74
2023/03/10 06:16:29;;;;;;;6.47;2.53;;;7.50;99.90;;;;;;5117025;28;20024;-74
2023/03/10 06:18:55;;;;;;;5.47;2.42;;;7.60;99.90;;;;;;5116954;28;20032;-74
2023/03/10 06:21:22;;;;;;;8.05;2.05;;;7.70;99.90;;;;;;5115906;28;20025;-74
2023/03/10 06:23:48;;;;;;;5.32;2.20;;;7.80;99.90;;;;;;5116082;28;20489;-74
2023/03/10 06:26:16;;;;;;;5.47;2.08;;;7.90;99.90;;;;;;5116818;28;20048;-74
2023/03/10 06:28:43;;;;;;;6.38;1.92;;;7.90;99.90;;;;;;5116780;28;20074;-74
2023/03/10 06:31:18;;;;;;;5.50;2.83;;;8.00;99.90;;;;;;5116706;28;20024;-74
2023/03/10 06:33:44;;;;;;;11.38;4.65;;;8.00;99.90;;;;;;5116659;28;20028;-74
2023/03/10 06:36:12;;;;;;;11.18;4.82;;;8.00;99.90;;;;;;5116616;28;20045;-74
2023/03/10 06:38:40;;;;;;;9.90;4.93;;;7.90;99.80;;;;;;5116573;28;20024;-74
2023/03/10 06:41:07;;;;;;;11.18;5.68;;;7.80;99.70;;;;;;5115336;28;20054;-74
2023/03/10 06:43:34;;;;;;;13.18;5.88;;;7.70;99.70;;;;;;5116570;28;20032;-74
2023/03/10 06:46:06;;;;;;;13.50;5.15;;;7.70;99.70;;;;;;5116472;28;20094;-74
2023/03/10 06:48:32;;;;;;;13.02;5.32;;;7.60;99.70;;;;;;5116433;28;20027;-74
2023/03/10 06:50:57;;;;;;;14.00;6.53;;;7.60;99.80;;;;;;5115344;28;20030;-74
2023/03/10 06:53:23;;;;;;;17.05;6.03;;;7.60;99.80;;;;;;5116220;28;20028;-74
2023/03/10 06:56:00;;;;;;;19.08;7.10;;;7.60;99.80;;;;;;5115770;28;20036;-74
2023/03/10 06:58:27;;;;;;;17.00;6.18;;;7.50;99.70;;;;;;5116311;28;20034;-74
2023/03/10 07:00:53;;;;;;;13.25;6.78;;;7.50;99.80;;;;;;5116128;28;20024;-74
2023/03/10 07:03:18;;;;;;;15.38;6.60;;;7.50;99.90;;;;;;5116114;28;20070;-74
2023/03/10 07:05:44;;;;;;;12.57;6.20;;;7.50;99.90;;;;;;5116091;28;20032;-74
2023/03/10 07:08:10;;;;;;;14.75;6.07;;;7.50;99.90;;;;;;5116054;28;20034;-74
2023/03/10 07:10:35;;;;;;;14.32;6.40;;;7.50;99.90;;;;;;5115884;28;20028;-74
2023/03/10 07:13:01;;;;;;;16.83;7.05;;;7.50;99.90;;;;;;5114931;28;20133;-74
2023/03/10 07:15:28;;;;;;;13.93;6.35;;;7.50;99.90;;;;;;5115848;28;20020;-74
2023/03/10 07:17:55;;;;;;;16.52;6.53;;;7.50;99.90;;;;;;5115841;28;20028;-74
2023/03/10 07:20:22;;;;;;;11.80;5.65;;;7.50;99.90;;;;;;5115806;28;20017;-74
2023/03/10 07:22:47;;;;;;;16.00;6.50;;;7.60;99.90;;;;;;5115755;28;20016;-74
2023/03/10 07:25:13;;;;;;;18.55;6.35;;;7.50;99.90;;;;;;5114836;28;20042;-74
2023/03/10 07:27:39;;;;;;;15.82;6.78;;;7.50;99.90;;;;;;5114904;28;20032;-75
2023/03/10 07:30:05;;;;;;;14.07;6.65;;;7.50;99.90;;;;;;5115602;28;20032;-74
2023/03/10 07:32:31;;;;;;;16.50;6.38;;;7.60;99.90;;;;;;5115588;28;20020;-74
2023/03/10 07:34:56;;;;;;;12.75;6.38;;;7.60;99.90;;;;;;5114429;28;20558;-74
2023/03/10 07:37:22;;;;;;;15.40;6.40;;;7.60;99.90;;;;;;5114574;28;20044;-74
2023/03/10 07:39:48;;;;;;;13.73;5.95;;;7.60;99.90;;;;;;5114488;28;20028;-74
2023/03/10 07:42:13;;;;;;;15.68;6.47;;;7.60;99.90;;;;;;5115061;28;20062;-74
2023/03/10 07:44:39;;;;;;;15.68;6.72;;;7.60;99.90;;;;;;5115301;28;20043;-74
2023/03/10 07:47:05;;;;;;;12.48;5.28;;;7.60;99.90;;;;;;5115266;28;20044;-74
2023/03/10 07:49:30;;;;;;;12.82;4.95;;;7.60;99.90;;;;;;5115245;28;20042;-74
2023/03/10 07:51:56;;;;;;;10.13;5.03;;;7.60;99.90;;;;;;5115187;28;20092;-74
2023/03/10 07:54:21;;;;;;;10.57;4.55;;;7.60;99.90;;;;;;5114102;28;20024;-74
2023/03/10 07:56:47;;;;;;;9.48;4.53;;;7.60;99.90;;;;;;5115026;28;20028;-74
2023/03/10 07:59:12;;;;;;;9.57;4.95;;;7.60;99.90;;;;;;5114170;28;20039;-74
2023/03/10 08:01:38;;;;;;;10.85;4.72;;;7.50;99.90;;;;;;5114981;28;20020;-74
2023/03/10 08:04:05;;;;;;;9.52;4.43;;;7.60;99.90;;;;;;5114969;28;20024;-74
2023/03/10 08:06:32;;;;;;;10.30;4.75;;;7.50;99.90;;;;;;5112931;28;20020;-74
2023/03/10 08:08:58;;;;;;;10.45;4.70;;;7.50;99.90;;;;;;5114774;28;20027;-74
2023/03/10 08:11:23;;;;;;;12.55;5.85;;;7.50;99.90;;;;;;5114940;28;20024;-75
2023/03/10 08:13:49;;;;;;;14.57;5.13;;;7.60;99.90;;;;;;5114728;28;20049;-74
2023/03/10 08:16:17;;;;;;;12.35;5.07;;;7.50;99.90;;;;;;5114652;28;20036;-73
2023/03/10 08:18:43;;;;;;;12.07;4.65;;;7.50;99.90;;;;;;5114676;28;20538;-74
2023/03/10 08:21:09;;;;;;;13.20;5.28;;;7.50;99.90;;;;;;5114620;28;20024;-74
2023/03/10 08:23:35;;;;;;;10.85;4.50;;;7.50;99.90;;;;;;5113618;28;20028;-74
2023/03/10 08:26:04;;;;;;;13.50;5.18;;;7.50;99.90;;;;;;5114566;28;20031;-74
2023/03/10 08:28:30;;;;;;;12.65;4.60;;;7.50;99.90;;;;;;5113441;28;20024;-74
2023/03/10 08:30:58;;;;;;;9.60;4.38;;;7.50;99.90;;;;;;5114462;28;20114;-74
2023/03/10 08:33:27;;;;;;;15.75;5.25;;;7.40;99.90;;;;;;5113496;28;20028;-74
2023/03/10 08:36:27;;;;;;;10.02;4.80;;;7.40;99.90;;;;;;5114289;28;20560;-74
2023/03/10 08:38:54;;;;;;;9.85;4.25;;;7.50;99.90;;;;;;5070837;28;20028;-74
2023/03/10 08:41:26;;;;;;;10.63;4.85;;;7.40;99.90;;;;;;5114090;28;20062;-74
2023/03/10 08:43:53;;;;;;;12.77;5.38;;;7.40;99.90;;;;;;5114286;28;20029;-74
2023/03/10 08:46:21;;;;;;;10.93;5.35;;;7.40;99.90;;;;;;5113302;28;20044;-74
2023/03/10 08:48:47;;;;;;;11.32;5.43;;;7.40;99.90;;;;;;5114132;28;20079;-74
2023/03/10 08:51:13;;;;;;;11.60;4.63;;;7.40;99.90;;;;;;5114087;28;20050;-74
2023/03/10 08:53:39;;;;;;;9.75;4.55;;;7.30;99.90;;;;;;5114077;28;20028;-74
2023/03/10 08:56:05;;;;;;;12.38;4.97;;;7.30;99.90;;;;;;5112927;28;20032;-74
2023/03/10 08:58:32;;;;;;;11.10;4.63;;;7.30;99.90;;;;;;5113948;28;20020;-74
2023/03/10 09:00:57;;;;;;;10.32;4.35;;;7.30;99.90;;;;;;5112960;28;20104;-74
2023/03/10 09:03:23;;;;;;;12.00;4.85;;;7.30;99.90;;;;;;5114038;28;20028;-74
2023/03/10 09:05:49;;;;;;;11.23;4.60;;;7.30;99.90;;;;;;5113809;28;20075;-74
2023/03/10 09:08:15;;;;;;;11.50;4.47;;;7.20;99.90;;;;;;5113763;28;20028;-74
2023/03/10 09:10:42;;;;;;;12.32;4.80;;;7.20;99.90;;;;;;5113762;28;20077;-74
2023/03/10 09:13:08;;;;;;;9.90;4.38;;;7.30;99.90;;;;;;5113743;28;20020;-74
2023/03/10 09:15:34;;;;;;;11.60;4.03;;;7.30;99.90;;;;;;5113652;28;20031;-74
2023/03/10 09:18:00;;;;;;;11.32;4.38;;;7.30;99.90;;;;;;5113432;28;20017;-74
2023/03/10 09:20:26;;;;;;;10.57;4.75;;;7.40;99.90;;;;;;5112609;28;20084;-74
2023/03/10 09:22:54;;;;;;;8.25;3.50;;;7.40;99.90;;;;;;5113647;28;20025;-74
2023/03/10 09:25:20;;;;;;;10.88;3.75;;;7.40;99.90;;;;;;5113579;28;20028;-74
2023/03/10 09:27:45;;;;;;;11.27;4.72;;;7.40;99.90;;;;;;5113585;28;20048;-74
2023/03/10 09:30:12;;;;;;;11.90;4.05;;;7.40;99.90;;;;;;5113605;28;20056;-74
2023/03/10 09:32:37;;;;;;;10.82;5.00;;;7.40;99.90;;;;;;5113522;28;20020;-74
2023/03/10 09:35:04;;;;;;;12.15;5.38;;;7.50;99.90;;;;;;5113439;28;20484;-74
2023/03/10 09:37:31;;;;;;;12.70;5.57;;;7.50;99.90;;;;;;5112569;28;20020;-74
2023/03/10 09:39:57;;;;;;;12.90;5.43;;;7.50;99.90;;;;;;5113470;28;20046;-74
2023/03/10 09:42:45;;;;;;;12.20;5.53;;;7.60;99.90;;;;;;5113186;28;20474;-74
2023/03/10 09:45:32;;;;;;;12.48;6.38;;;7.60;99.90;;;;;;5113510;28;20032;-74
2023/03/10 09:48:22;;;;;;;14.65;6.95;;;7.60;99.90;;;;;;5112450;28;20024;-74
2023/03/10 09:50:51;;;;;;;12.88;5.93;;;7.70;99.90;;;;;;5113556;28;20438;-74
2023/03/10 09:53:41;;;;;;;11.90;5.25;;;7.70;99.90;;;;;;5113423;28;20028;-74
2023/03/10 09:56:13;;;;;;;10.25;5.35;;;7.70;99.90;;;;;;5112289;28;20042;-74
2023/03/10 09:58:42;;;;;;;12.65;6.05;;;7.70;99.90;;;;;;5113381;28;20019;-74
2023/03/10 10:01:16;;;;;;;11.45;4.90;;;7.70;99.90;;;;;;5113279;28;20066;-74
2023/03/10 10:03:46;;;;;;;12.80;5.50;;;7.70;99.90;;;;;;5113324;28;20017;-75
2023/03/10 10:06:24;;;;;;;10.82;5.50;;;7.70;99.90;;;;;;5113235;28;20027;-75
2023/03/10 10:08:55;;;;;;;9.90;4.93;;;7.70;99.90;;;;;;5113356;28;20038;-74
2023/03/10 10:11:20;;;;;;;12.65;5.30;;;7.70;99.90;;;;;;5113222;28;20031;-74
2023/03/10 10:13:46;;;;;;;10.25;4.40;;;7.70;99.90;;;;;;5113217;28;20021;-75
2023/03/10 10:16:47;;;;;;;11.00;4.85;;;7.80;99.90;;;;;;5113039;28;20039;-75
2023/03/10 10:19:24;;;;;;;10.70;3.92;;;7.80;99.90;;;;;;5102148;28;20064;-74
2023/03/10 10:22:07;;;;;;;9.68;4.72;;;7.80;99.90;;;;;;5113302;28;20039;-74
2023/03/10 10:24:33;;;;;;;10.63;4.28;;;7.90;99.90;;;;;;5113130;28;20495;-75
2023/03/10 10:26:59;;;;;;;11.07;4.75;;;8.00;99.90;;;;;;5112014;28;20088;-75
2023/03/10 10:29:36;;;;;;;12.25;4.45;;;8.00;99.90;;;;;;5114273;28;20036;-75
2023/03/10 10:32:06;;;;;;;9.05;4.22;;;8.10;99.90;;;;;;5116871;28;20032;-75
2023/03/10 10:34:33;;;;;;;8.52;4.40;;;8.20;99.90;;;;;;5116726;28;20036;-75
2023/03/10 10:37:00;;;;;;;8.23;3.90;;;8.20;99.90;;;;;;5116623;28;20391;-75
2023/03/10 10:39:41;;;;;;;8.73;4.28;;;8.20;99.90;;;;;;5115677;28;20016;-75
2023/03/10 10:42:18;;;;;;;10.82;4.45;;;8.10;99.90;;;;;;5116376;28;20048;-75
2023/03/10 10:44:45;;;;;;;8.63;4.00;;;8.20;99.90;;;;;;5116562;28;20085;-75
2023/03/10 10:47:27;;;;;;;10.13;3.90;;;8.20;99.90;;;;;;5116496;28;20169;-75
2023/03/10 10:49:53;;;;;;;7.95;4.20;;;8.20;99.90;;;;;;5116507;28;20048;-75
2023/03/10 10:52:23;;;;;;;8.45;4.43;;;8.30;99.90;;;;;;5116402;28;20024;-75
2023/03/10 10:54:57;;;;;;;10.30;4.20;;;8.30;99.90;;;;;;5116300;28;20039;-74
2023/03/10 10:57:29;;;;;;;8.18;3.95;;;8.30;99.90;;;;;;5115419;28;20017;-75
2023/03/10 11:00:12;;;;;;;;;;;8.30;99.90;;;;;;5115710;28;20016;-75
2023/03/10 11:02:38;;;;;;;9.07;4.50;;;8.40;99.90;;;;;;5116241;28;19904;-75
2023/03/10 11:05:29;;;;;;;9.60;4.65;;;8.40;99.90;;;;;;5116121;28;20258;-75
2023/03/10 11:07:55;;;;;;;11.47;4.63;;;8.40;99.90;;;;;;5116048;28;20036;-74
2023/03/10 11:10:27;;;;;;;13.55;5.25;;;8.40;99.90;;;;;;5116039;28;20030;-74
2023/03/10 11:13:20;;;;;;;10.73;4.80;;;8.50;99.90;;;;;;5116003;28;20028;-74
2023/03/10 11:16:20;;;;;;;11.77;5.10;;;8.50;99.90;;;;;;5115928;28;20372;-74
2023/03/10 11:18:57;;;;;;;12.48;4.70;;;8.50;99.90;;;;;;5116074;28;20020;-75
2023/03/10 11:21:29;;;;;;;11.55;4.80;;;8.50;99.90;;;;;;5115996;28;20079;-75
2023/03/10 11:24:11;;;;;;;12.23;4.38;;;8.60;99.90;;;;;;5114818;28;20025;-75
2023/03/10 11:26:41;;;;;;;8.85;4.25;;;8.70;99.90;;;;;;5115756;28;20083;-74
2023/03/10 11:29:49;;;;;;;10.88;4.25;;;8.80;99.90;;;;;;5115673;28;20020;-74
2023/03/10 11:32:24;;;;;;;12.90;5.03;;;8.80;99.90;;;;;;5073921;28;20040;-74
2023/03/10 11:34:52;;;;;;;17.15;5.70;;;8.90;99.90;;;;;;5115549;28;20024;-74
2023/03/10 11:37:29;;;;;;;12.98;5.30;;;9.00;99.90;;;;;;5115523;28;20020;-74
2023/03/10 11:40:32;;;;;;;13.07;5.45;;;9.00;99.90;;;;;;5115428;28;20085;-74
2023/03/10 11:43:13;;;;;;;12.02;5.32;;;9.10;99.90;;;;;;5115192;28;20445;-74
2023/03/10 11:45:51;;;;;;;12.40;5.35;;;9.10;99.90;;;;;;5115380;28;20081;-75
2023/03/10 11:48:28;;;;;;;13.50;5.70;;;9.10;99.90;;;;;;5115328;28;20092;-75
2023/03/10 11:51:00;;;;;;;13.40;6.05;;;9.20;99.90;;;;;;5115319;28;20076;-75
2023/03/10 11:53:49;;;;;;;15.52;5.60;;;9.20;99.90;;;;;;5115257;28;20546;-75
2023/03/10 11:56:18;;;;;;;13.13;4.85;;;9.20;99.90;;;;;;5115104;28;20058;-74
2023/03/10 11:59:14;;;;;;;13.05;5.55;;;9.20;99.90;;;;;;5115127;28;20103;-75
2023/03/10 12:02:03;;;;;;;11.20;5.47;;;9.20;99.90;;;;;;5115025;28;20077;-75
2023/03/10 12:04:46;;;;;;;12.82;4.72;;;9.10;99.90;;;;;;5076863;28;20059;-75
2023/03/10 12:07:23;;;;;;;14.00;5.43;;;9.10;99.90;;;;;;5114902;28;20032;-74
2023/03/10 12:09:53;;;;;;;14.48;5.80;;;9.00;99.90;;;;;;5114821;28;20111;-75
2023/03/10 12:12:37;;;;;;;13.65;5.80;;;9.00;99.90;;;;;;5114785;28;20035;-75
2023/03/10 12:15:23;;;;;;;11.45;5.85;;;8.90;99.90;;;;;;5114734;28;20032;-75
2023/03/10 12:17:50;;;;;;;10.60;5.70;;;8.90;99.90;;;;;;5114742;28;20031;-75
2023/03/10 12:20:16;;;;;;;12.52;5.55;;;8.80;99.90;;;;;;5114610;28;20021;-74
2023/03/10 12:22:58;;;;;;;14.05;6.03;;;8.80;99.90;;;;;;5114664;28;20023;-74
2023/03/10 12:25:29;;;;;;;11.97;5.67;;;8.80;99.90;;;;;;5114781;28;20039;-75
2023/03/10 12:28:27;;;;;;;13.10;5.27;;;8.80;99.90;;;;;;5114567;28;20289;-75
2023/03/10 12:31:30;;;;;;;10.68;4.43;;;8.80;99.90;;;;;;5114490;28;20315;-74
2023/03/10 12:34:17;;;;;;;10.10;4.32;;;8.70;99.90;;;;;;5114435;28;20087;-75
2023/03/10 12:36:45;;;;;;;11.45;4.82;;;8.70;99.90;;;;;;5114441;28;20056;-74
2023/03/10 12:39:33;;;;;;;7.88;4.28;;;8.70;99.90;;;;;;5114380;28;20070;-74
2023/03/10 12:42:22;;;;;;;10.02;4.07;;;8.70;99.90;;;;;;5114219;28;20065;-74
2023/03/10 12:44:54;;;;;;;6.25;3.83;;;8.70;99.90;;;;;;5114270;28;20058;-74
2023/03/10 12:47:54;;;;;;;8.35;3.63;;;8.70;99.90;;;;;;5114256;28;20028;-75
2023/03/10 12:50:44;;;;;;;8.13;3.80;;;8.70;99.90;;;;;;5114247;28;20028;-75
2023/03/10 12:53:10;;;;;;;7.30;3.47;;;8.60;99.90;;;;;;5113773;28;20026;-75
2023/03/10 12:55:39;;;;;;;10.23;4.05;;;8.60;99.90;;;;;;5113948;28;20036;-75
2023/03/10 12:58:19;;;;;;;10.07;4.45;;;8.60;99.90;;;;;;5114008;28;20020;-75
2023/03/10 13:00:59;;;;;;;9.23;3.53;;;8.60;99.90;;;;;;5113993;28;20024;-75
2023/03/10 13:03:43;;;;;;;8.05;3.08;;;8.50;99.90;;;;;;5114081;28;20020;-74